createdAt,value
2018-07-07T00:00:40.505Z,1.60
2018-07-07T00:03:09.563Z,1.80
2018-07-07T00:05:41.012Z,1.40
2018-07-07T00:08:10.137Z,2.10
2018-07-07T00:10:39.157Z,1.90
2018-07-07T00:13:08.257Z,2.10
2018-07-07T00:15:37.405Z,1.77
2018-07-07T00:18:08.101Z,1.70
2018-07-07T00:20:37.204Z,1.90
2018-07-07T00:23:06.137Z,1.83
2018-07-07T00:25:35.156Z,1.80
2018-07-07T00:28:04.256Z,1.83
2018-07-07T00:30:33.367Z,1.90
2018-07-07T00:33:02.398Z,1.70
2018-07-07T00:35:31.486Z,2.20
2018-07-07T00:38:00.676Z,1.70
2018-07-07T00:40:29.707Z,1.80
2018-07-07T00:42:58.691Z,1.53
2018-07-07T00:45:27.670Z,1.73
2018-07-07T00:47:58.384Z,2.00
2018-07-07T00:50:25.713Z,1.90
2018-07-07T00:52:57.806Z,2.00
2018-07-07T00:55:26.358Z,1.90
2018-07-07T00:57:55.277Z,2.13
2018-07-07T01:00:24.654Z,1.93
2018-07-07T01:02:53.708Z,1.80
2018-07-07T01:05:35.708Z,1.70
2018-07-07T01:08:04.892Z,1.87
2018-07-07T01:10:33.914Z,1.77
2018-07-07T01:13:02.992Z,2.10
2018-07-07T01:15:31.964Z,1.60
2018-07-07T01:18:01.064Z,1.90
2018-07-07T01:20:30.035Z,2.20
2018-07-07T01:23:01.534Z,2.13
2018-07-07T01:25:30.518Z,2.20
2018-07-07T01:27:59.678Z,2.10
2018-07-07T01:30:31.492Z,2.57
2018-07-07T01:33:00.621Z,2.20
2018-07-07T01:35:29.785Z,2.00
2018-07-07T01:38:01.898Z,2.13
2018-07-07T01:40:30.994Z,2.47
2018-07-07T01:43:01.743Z,2.10
2018-07-07T01:45:29.182Z,2.37
2018-07-07T01:47:58.271Z,2.07
2018-07-07T01:50:27.252Z,2.20
2018-07-07T01:52:56.225Z,2.47
2018-07-07T01:55:25.292Z,2.10
2018-07-07T01:57:54.337Z,2.37
2018-07-07T02:00:23.584Z,2.13
2018-07-07T02:02:52.441Z,2.20
2018-07-07T02:05:21.472Z,2.27
2018-07-07T02:07:50.540Z,2.20
2018-07-07T02:10:19.583Z,2.20
2018-07-07T02:12:48.525Z,2.43
2018-07-07T02:15:17.542Z,2.00
2018-07-07T02:17:46.509Z,2.13
2018-07-07T02:20:15.469Z,2.63
2018-07-07T02:22:46.115Z,2.47
2018-07-07T02:25:15.227Z,2.50
2018-07-07T02:27:44.369Z,2.70
2018-07-07T02:30:13.507Z,2.33
2018-07-07T02:32:42.581Z,2.10
2018-07-07T02:35:11.636Z,2.70
2018-07-07T02:37:40.635Z,2.50
2018-07-07T02:40:11.850Z,2.30
2018-07-07T02:42:41.006Z,2.80
2018-07-07T02:45:12.533Z,2.30
2018-07-07T02:47:41.526Z,2.63
2018-07-07T02:50:10.575Z,2.43
2018-07-07T02:52:39.717Z,2.50
2018-07-07T02:55:08.873Z,2.70
2018-07-07T02:57:38.071Z,3.37
2018-07-07T03:00:07.189Z,2.90
2018-07-07T03:02:38.110Z,2.53
2018-07-07T03:05:07.091Z,3.60
2018-07-07T03:07:36.007Z,3.30
2018-07-07T03:10:07.553Z,3.45
2018-07-07T03:12:36.608Z,2.70
2018-07-07T03:15:05.705Z,2.77
2018-07-07T03:17:34.680Z,2.73
2018-07-07T03:20:03.712Z,2.73
2018-07-07T03:22:32.767Z,2.73
2018-07-07T03:25:01.773Z,2.80
2018-07-07T03:27:31.026Z,2.90
2018-07-07T03:30:00.144Z,3.30
2018-07-07T03:32:29.166Z,3.00
2018-07-07T03:34:58.143Z,2.70
2018-07-07T03:37:27.087Z,3.00
2018-07-07T03:39:56.114Z,3.27
2018-07-07T03:42:25.161Z,2.57
2018-07-07T03:44:54.287Z,3.37
2018-07-07T03:47:23.337Z,2.97
2018-07-07T03:49:52.255Z,3.37
2018-07-07T03:52:21.376Z,3.40
2018-07-07T03:54:50.406Z,3.00
2018-07-07T03:57:21.777Z,3.00
2018-07-07T03:59:50.828Z,3.00
2018-07-07T04:02:19.901Z,2.47
2018-07-07T04:04:48.854Z,2.70
2018-07-07T04:07:17.902Z,3.30
2018-07-07T04:09:46.918Z,2.67
2018-07-07T04:12:15.950Z,3.00
2018-07-07T04:14:44.848Z,3.10
2018-07-07T04:17:13.895Z,3.20
2018-07-07T04:19:42.928Z,2.50
2018-07-07T04:22:12.003Z,2.87
2018-07-07T04:24:40.939Z,3.00
2018-07-07T04:27:09.895Z,3.10
2018-07-07T04:29:38.965Z,2.77
2018-07-07T04:32:10.504Z,3.30
2018-07-07T04:34:39.634Z,2.80
2018-07-07T04:37:08.622Z,3.10
2018-07-07T04:39:40.420Z,3.13
2018-07-07T04:42:09.409Z,2.70
2018-07-07T04:44:38.349Z,2.70
2018-07-07T04:47:07.421Z,2.50
2018-07-07T04:49:36.516Z,2.80
2018-07-07T04:52:08.110Z,3.20
2018-07-07T04:54:40.672Z,2.70
2018-07-07T04:57:09.644Z,3.02
2018-07-07T04:59:38.646Z,2.87
2018-07-07T05:02:07.764Z,3.17
2018-07-07T05:04:36.861Z,2.50
2018-07-07T05:07:05.704Z,2.73
2018-07-07T05:09:34.765Z,2.87
2018-07-07T05:12:03.891Z,2.73
2018-07-07T05:14:35.517Z,3.40
2018-07-07T05:17:07.120Z,2.60
2018-07-07T05:19:36.165Z,2.83
2018-07-07T05:22:05.253Z,2.70
2018-07-07T05:24:34.163Z,3.20
2018-07-07T05:27:03.174Z,2.83
2018-07-07T05:29:32.430Z,3.50
2018-07-07T05:32:01.450Z,3.27
2018-07-07T05:34:30.470Z,3.57
2018-07-07T05:36:59.502Z,3.37
2018-07-07T05:39:28.605Z,3.57
2018-07-07T05:41:57.603Z,3.10
2018-07-07T05:44:26.709Z,3.20
2018-07-07T05:46:55.615Z,3.63
2018-07-07T05:49:24.545Z,3.17
2018-07-07T05:51:53.617Z,3.00
2018-07-07T05:54:22.573Z,3.53
2018-07-07T05:56:51.586Z,2.97
2018-07-07T05:59:20.593Z,2.77
2018-07-07T06:01:50.295Z,2.57
2018-07-07T06:04:19.329Z,2.67
2018-07-07T06:06:48.279Z,2.47
2018-07-07T06:09:17.290Z,2.33
2018-07-07T06:11:46.166Z,2.10
2018-07-07T06:14:16.286Z,2.23
2018-07-07T06:16:45.059Z,2.40
2018-07-07T06:19:14.043Z,2.00
2018-07-07T06:21:43.034Z,2.13
2018-07-07T06:24:12.370Z,2.03
2018-07-07T06:26:41.405Z,1.90
2018-07-07T06:29:10.434Z,2.53
2018-07-07T06:31:39.311Z,1.80
2018-07-07T06:34:08.218Z,2.30
2018-07-07T06:36:37.197Z,2.20
2018-07-07T06:39:06.762Z,2.00
2018-07-07T06:41:35.698Z,2.27
2018-07-07T06:44:07.459Z,2.20
2018-07-07T06:46:36.580Z,2.65
2018-07-07T06:49:05.560Z,2.00
2018-07-07T06:51:34.593Z,1.75
2018-07-07T06:54:06.113Z,1.90
2018-07-07T06:56:35.032Z,1.80
2018-07-07T06:59:07.148Z,2.00
2018-07-07T07:01:36.143Z,1.90
2018-07-07T07:04:05.035Z,1.77
2018-07-07T07:06:34.176Z,1.72
2018-07-07T07:09:03.125Z,1.77
2018-07-07T07:11:32.089Z,1.80
2018-07-07T07:14:04.975Z,1.85
2018-07-07T07:16:33.837Z,2.17
2018-07-07T07:19:02.998Z,1.50
2018-07-07T07:21:31.983Z,2.42
2018-07-07T07:24:01.109Z,2.05
2018-07-07T07:26:30.108Z,2.00
2018-07-07T07:28:59.110Z,1.67
2018-07-07T07:31:28.050Z,2.02
2018-07-07T07:33:57.101Z,1.90
2018-07-07T07:36:51.736Z,1.65
2018-07-07T07:39:20.700Z,1.57
2018-07-07T07:41:49.640Z,1.95
2018-07-07T07:44:18.641Z,1.75
2018-07-07T07:46:47.641Z,1.50
2018-07-07T07:49:16.643Z,1.85
2018-07-07T07:51:45.529Z,1.70
2018-07-07T07:54:16.857Z,1.47
2018-07-07T07:56:45.866Z,1.60
2018-07-07T07:59:17.889Z,1.72
2018-07-07T08:01:46.905Z,1.60
2018-07-07T08:04:15.978Z,1.30
2018-07-07T08:06:44.991Z,1.55
2018-07-07T08:09:13.985Z,1.90
2018-07-07T08:11:42.954Z,1.62
2018-07-07T08:14:12.122Z,1.50
2018-07-07T08:16:41.169Z,1.67
2018-07-07T08:19:10.074Z,1.85
2018-07-07T08:21:38.977Z,1.70
2018-07-07T08:24:07.895Z,2.17
2018-07-07T08:26:36.806Z,1.62
2018-07-07T08:29:08.071Z,1.47
2018-07-07T08:31:37.109Z,1.40
2018-07-07T08:34:05.970Z,1.42
2018-07-07T08:36:39.556Z,1.50
2018-07-07T08:39:08.483Z,1.52
2018-07-07T08:41:37.579Z,1.70
2018-07-07T08:44:06.561Z,1.77
2018-07-07T08:46:35.610Z,1.50
2018-07-07T08:49:04.683Z,1.90
2018-07-07T08:51:33.694Z,1.77
2018-07-07T08:54:05.540Z,1.87
2018-07-07T08:56:34.508Z,1.60
2018-07-07T08:59:03.617Z,1.65
2018-07-07T09:01:32.617Z,1.62
2018-07-07T09:04:01.677Z,1.77
2018-07-07T09:06:30.769Z,1.70
2018-07-07T09:08:59.705Z,1.80
2018-07-07T09:11:28.885Z,2.00
2018-07-07T09:13:57.795Z,1.90
2018-07-07T09:16:29.002Z,1.60
2018-07-07T09:18:58.310Z,1.50
2018-07-07T09:21:27.283Z,1.72
2018-07-07T09:23:56.386Z,1.70
2018-07-07T09:26:25.327Z,1.77
2018-07-07T09:28:54.377Z,2.05
2018-07-07T09:31:23.399Z,1.80
2018-07-07T09:33:54.764Z,1.75
2018-07-07T09:36:25.671Z,1.98
2018-07-07T09:38:54.622Z,1.62
2018-07-07T09:41:23.568Z,1.52
2018-07-07T09:43:52.547Z,1.90
2018-07-07T09:46:21.632Z,1.72
2018-07-07T09:48:50.618Z,1.70
2018-07-07T09:51:21.474Z,1.65
2018-07-07T09:53:50.388Z,1.57
2018-07-07T09:56:19.490Z,1.50
2018-07-07T09:58:48.447Z,1.67
2018-07-07T10:01:17.412Z,1.67
2018-07-07T10:03:46.343Z,1.72
2018-07-07T10:06:18.398Z,1.65
2018-07-07T10:08:47.498Z,1.62
2018-07-07T10:11:16.488Z,2.00
2018-07-07T10:13:45.418Z,1.85
2018-07-07T10:16:14.807Z,1.67
2018-07-07T10:18:46.427Z,1.90
2018-07-07T10:21:17.164Z,1.75
2018-07-07T10:23:46.173Z,1.87
2018-07-07T10:26:15.202Z,1.67
2018-07-07T10:28:46.394Z,1.65
2018-07-07T10:31:15.413Z,1.65
2018-07-07T10:33:44.392Z,1.80
2018-07-07T10:36:13.391Z,1.50
2018-07-07T10:38:42.388Z,1.42
2018-07-07T10:41:11.275Z,1.70
2018-07-07T10:43:40.362Z,1.40
2018-07-07T10:46:09.461Z,2.00
2018-07-07T10:48:38.260Z,1.67
2018-07-07T10:51:07.247Z,1.70
2018-07-07T10:53:36.260Z,1.67
2018-07-07T10:56:05.238Z,1.87
2018-07-07T10:58:34.353Z,2.20
2018-07-07T11:01:06.102Z,1.85
2018-07-07T11:03:35.090Z,1.65
2018-07-07T11:06:04.106Z,1.70
2018-07-07T11:08:34.928Z,1.65
2018-07-07T11:11:03.926Z,1.80
2018-07-07T11:13:33.120Z,1.40
2018-07-07T11:16:02.275Z,1.80
2018-07-07T11:18:31.336Z,1.62
2018-07-07T11:21:00.475Z,1.60
2018-07-07T11:23:29.496Z,1.62
2018-07-07T11:26:00.313Z,1.90
2018-07-07T11:28:32.127Z,1.50
2018-07-07T11:31:06.023Z,1.80
2018-07-07T11:33:35.278Z,1.50
2018-07-07T11:36:04.234Z,1.60
2018-07-07T11:38:33.283Z,1.80
2018-07-07T11:41:02.203Z,1.50
2018-07-07T11:43:31.290Z,1.50
2018-07-07T11:46:02.446Z,1.75
2018-07-07T11:48:31.627Z,1.72
2018-07-07T11:51:00.554Z,1.57
2018-07-07T11:53:32.357Z,1.72
2018-07-07T11:56:01.377Z,1.67
2018-07-07T11:58:30.470Z,1.45
2018-07-07T12:00:59.531Z,1.70
2018-07-07T12:03:28.657Z,1.50
2018-07-07T12:05:57.564Z,1.75
2018-07-07T12:08:26.591Z,1.75
2018-07-07T12:10:58.279Z,1.80
2018-07-07T12:13:27.220Z,1.62
2018-07-07T12:15:56.287Z,1.98
2018-07-07T12:18:27.986Z,1.80
2018-07-07T12:20:57.000Z,1.80
2018-07-07T12:23:25.859Z,1.87
2018-07-07T12:26:01.027Z,1.70
2018-07-07T12:28:29.922Z,1.57
2018-07-07T12:30:58.884Z,2.00
2018-07-07T12:33:30.785Z,1.72
2018-07-07T12:36:02.857Z,1.62
2018-07-07T12:38:31.958Z,1.95
2018-07-07T12:41:00.845Z,1.70
2018-07-07T12:43:29.879Z,1.37
2018-07-07T12:45:58.917Z,1.90
2018-07-07T12:48:27.766Z,1.52
2018-07-07T12:50:56.765Z,1.70
2018-07-07T12:53:27.907Z,1.70
2018-07-07T12:55:56.998Z,1.82
2018-07-07T12:58:25.869Z,1.60
2018-07-07T13:00:54.862Z,1.80
2018-07-07T13:03:23.818Z,1.62
2018-07-07T13:05:52.753Z,1.62
2018-07-07T13:08:21.808Z,1.80
2018-07-07T13:10:50.732Z,1.55
2018-07-07T13:13:22.513Z,1.85
2018-07-07T13:15:51.494Z,1.80
2018-07-07T13:18:22.130Z,1.60
2018-07-07T13:20:49.406Z,1.80
2018-07-07T13:23:18.454Z,2.45
2018-07-07T13:25:47.423Z,1.70
2018-07-07T13:28:17.084Z,1.70
2018-07-07T13:30:46.039Z,1.60
2018-07-07T13:33:15.113Z,1.70
2018-07-07T13:35:46.622Z,1.52
2018-07-07T13:40:44.454Z,1.70
2018-07-07T13:43:13.514Z,1.67
2018-07-07T13:45:42.397Z,1.52
2018-07-07T13:48:38.712Z,1.80
2018-07-07T13:55:07.456Z,1.60
2018-07-07T13:58:05.606Z,2.17
2018-07-07T14:04:22.622Z,2.10
2018-07-07T14:07:10.724Z,1.70
2018-07-07T14:10:17.581Z,2.05
2018-07-07T14:13:34.444Z,1.45
2018-07-07T14:16:31.084Z,2.05
2018-07-07T14:25:51.729Z,1.95
2018-07-07T14:28:38.463Z,2.00
2018-07-07T14:31:17.265Z,1.67
2018-07-07T14:34:47.338Z,1.65
2018-07-07T14:37:54.936Z,1.62
2018-07-07T14:40:59.683Z,1.70
2018-07-07T14:46:51.163Z,1.70
2018-07-07T14:49:43.953Z,1.65
2018-07-07T14:52:52.823Z,1.80
2018-07-07T14:55:45.397Z,1.55
2018-07-07T14:59:00.990Z,1.60
2018-07-07T15:05:56.463Z,1.80
2018-07-07T15:08:43.983Z,1.85
2018-07-07T15:15:19.090Z,1.62
2018-07-07T15:21:39.339Z,1.77
2018-07-07T15:31:51.801Z,1.77
2018-07-07T15:35:19.988Z,1.70
2018-07-07T15:41:54.677Z,1.52
2018-07-07T15:48:38.553Z,1.70
2018-07-07T15:51:41.819Z,1.70
2018-07-07T15:54:42.666Z,1.60
2018-07-07T16:08:52.923Z,1.50
2018-07-07T16:22:14.839Z,1.50
2018-07-07T16:25:27.620Z,1.50
2018-07-07T16:29:31.767Z,1.50
2018-07-07T16:31:48.588Z,1.65
2018-07-07T16:34:54.702Z,1.70
2018-07-07T16:38:22.229Z,1.62
2018-07-07T16:41:51.561Z,1.70
2018-07-07T16:44:46.940Z,1.37
2018-07-07T16:50:57.587Z,1.30
2018-07-07T16:54:18.620Z,1.40
2018-07-07T16:56:56.828Z,1.30
2018-07-07T17:00:28.735Z,1.20
2018-07-07T17:03:30.397Z,1.27
2018-07-07T17:06:21.083Z,1.12
2018-07-07T17:12:46.299Z,1.10
2018-07-07T17:16:03.255Z,1.17
2018-07-07T17:22:20.495Z,0.87
2018-07-07T17:25:35.889Z,1.13
2018-07-07T17:29:05.537Z,1.20
2018-07-07T17:42:11.712Z,1.00
2018-07-07T17:45:35.165Z,0.90
2018-07-07T17:48:35.040Z,1.00
2018-07-07T17:51:30.022Z,1.00
2018-07-07T17:54:23.208Z,0.90
2018-07-07T17:57:34.760Z,0.93
2018-07-07T18:00:12.289Z,0.90
2018-07-07T18:03:24.728Z,1.27
2018-07-07T18:06:18.839Z,0.93
2018-07-07T18:09:23.980Z,1.13
2018-07-07T18:14:30.670Z,1.12
2018-07-07T18:15:40.037Z,1.10
2018-07-07T18:19:10.634Z,1.10
2018-07-07T18:21:48.671Z,1.50
2018-07-07T18:25:01.519Z,1.40
2018-07-07T18:28:18.593Z,1.27
2018-07-07T18:31:25.062Z,1.30
2018-07-07T18:34:31.791Z,1.27
2018-07-07T18:37:58.867Z,1.30
2018-07-07T18:41:11.208Z,1.23
2018-07-07T18:44:39.819Z,1.47
2018-07-07T18:48:24.916Z,1.50
2018-07-07T18:58:06.859Z,1.30
2018-07-07T19:01:16.624Z,1.43
2018-07-07T19:04:12.943Z,1.20
2018-07-07T19:07:22.481Z,1.50
2018-07-07T19:10:30.634Z,1.50
2018-07-07T19:13:09.547Z,1.60
2018-07-07T19:16:03.369Z,1.60
2018-07-07T19:19:22.876Z,1.20
2018-07-07T19:23:23.435Z,1.20
2018-07-07T19:26:06.925Z,1.50
2018-07-07T19:29:01.770Z,1.40
2018-07-07T19:32:37.119Z,1.50
2018-07-07T19:35:21.913Z,1.33
2018-07-07T19:37:53.212Z,1.60
2018-07-07T19:40:22.432Z,1.57
2018-07-07T19:42:51.644Z,1.43
2018-07-07T19:45:20.746Z,1.72
2018-07-07T19:47:49.807Z,1.50
2018-07-07T19:50:18.833Z,1.43
2018-07-07T19:52:47.779Z,1.40
2018-07-07T19:55:17.043Z,1.40
2018-07-07T19:57:45.999Z,1.77
2018-07-07T20:00:15.152Z,1.80
2018-07-07T20:02:44.369Z,1.43
2018-07-07T20:05:14.859Z,1.57
2018-07-07T20:07:42.336Z,1.80
2018-07-07T20:10:11.480Z,1.70
2018-07-07T20:12:40.531Z,1.80
2018-07-07T20:15:09.659Z,1.63
2018-07-07T20:17:59.829Z,1.77
2018-07-07T20:20:49.009Z,1.80
2018-07-07T20:23:18.386Z,1.70
2018-07-07T20:26:05.770Z,2.10
2018-07-07T20:28:52.718Z,1.70
2018-07-07T20:31:21.756Z,2.00
2018-07-07T20:33:50.960Z,1.70
2018-07-07T20:36:20.177Z,2.07
2018-07-07T20:38:49.230Z,2.00
2018-07-07T20:41:18.191Z,1.80
2018-07-07T20:43:49.882Z,1.70
2018-07-07T20:46:19.004Z,1.77
2018-07-07T20:48:48.020Z,1.80
2018-07-07T20:51:17.127Z,2.33
2018-07-07T20:53:46.236Z,2.00
2018-07-07T20:56:15.238Z,2.10
2018-07-07T20:58:46.514Z,1.77
2018-07-07T21:01:15.533Z,1.87
2018-07-07T21:03:44.761Z,2.17
2018-07-07T21:06:13.714Z,1.93
2018-07-07T21:08:42.693Z,2.10
2018-07-07T21:11:11.805Z,2.07
2018-07-07T21:13:40.781Z,1.80
2018-07-07T21:16:09.831Z,1.97
2018-07-07T21:18:39.044Z,2.27
2018-07-07T21:21:11.181Z,2.03
2018-07-07T21:23:40.089Z,2.30
2018-07-07T21:26:09.197Z,2.40
2018-07-07T21:28:38.134Z,2.13
2018-07-07T21:31:10.214Z,2.10
2018-07-07T21:33:39.259Z,1.73
2018-07-07T21:36:08.343Z,2.30
2018-07-07T21:38:37.519Z,2.37
2018-07-07T21:41:06.749Z,1.87
2018-07-07T21:43:35.924Z,2.30
2018-07-07T21:46:05.018Z,2.20
2018-07-07T21:48:34.057Z,2.20
2018-07-07T21:51:03.055Z,2.47
2018-07-07T21:53:34.424Z,2.40
2018-07-07T21:56:03.671Z,2.50
2018-07-07T21:58:32.812Z,2.27
2018-07-07T22:01:38.136Z,2.50
2018-07-07T22:04:28.057Z,2.17
2018-07-07T22:07:17.538Z,2.40
2018-07-07T22:09:46.661Z,2.00
2018-07-07T22:12:15.704Z,2.27
2018-07-07T22:14:44.657Z,2.17
2018-07-07T22:17:13.841Z,2.23
2018-07-07T22:19:42.770Z,2.40
2018-07-07T22:22:12.337Z,2.65
2018-07-07T22:24:42.500Z,1.97
2018-07-07T22:27:13.020Z,2.20
2018-07-07T22:29:42.184Z,2.30
2018-07-07T22:32:23.816Z,2.20
2018-07-07T22:34:53.060Z,2.17
2018-07-07T22:37:22.208Z,2.20
2018-07-07T22:39:51.323Z,2.33
2018-07-07T22:42:20.333Z,2.33
2018-07-07T22:44:51.991Z,2.40
2018-07-07T22:47:20.993Z,2.30
2018-07-07T22:49:50.122Z,2.27
2018-07-07T22:52:19.643Z,2.40
2018-07-07T22:55:14.645Z,2.33
2018-07-07T23:00:43.444Z,2.57
2018-07-07T23:10:29.768Z,2.40
2018-07-07T23:13:00.988Z,2.33
2018-07-07T23:15:31.037Z,2.50
2018-07-07T23:18:00.634Z,2.87
2018-07-07T23:20:30.704Z,2.67
2018-07-07T23:23:00.296Z,2.57
2018-07-07T23:25:49.395Z,2.60
2018-07-07T23:28:30.331Z,2.80
2018-07-07T23:30:59.366Z,2.63
2018-07-07T23:33:48.341Z,2.60
2018-07-07T23:36:17.576Z,3.33
2018-07-07T23:38:49.113Z,2.60
2018-07-07T23:41:18.316Z,2.80
2018-07-07T23:43:50.395Z,3.37
2018-07-07T23:46:19.449Z,2.53
2018-07-07T23:48:48.557Z,2.97
2018-07-07T23:51:17.524Z,2.53
2018-07-07T23:53:46.545Z,2.50
2018-07-07T23:56:15.692Z,2.77
2018-07-07T23:58:44.768Z,2.87
